Nearby METAR Reports

 

KBAX - Bad Axe, Michigan, USA
Distance from station: ESE 22mi, 35km
Updated: Mon, 20-May-2019 11:35pm EDT
Overcast
Overcast
 Wind from calm
Wind: Calm
Temperature: 43°F , 6°C
Dew Point: 39°F , 4°C
Humidity: 87%
Barometer: 30.11 inHg , 1019.6 hPa
Clouds: Overcast
Visibility: 10 miles , 16 km
Cloud details: Overcast 4800 ft
2019/05/21 03:35 KBAX 210335Z AUTO 00000KT 10SM OVC048 06/04 A3011 RMK AO2 T00640044
KFNT - Flint, Michigan, USA
Distance from station: SSW 68mi, 109km
Updated: Mon, 20-May-2019 10:53pm EDT
Clear
Clear
 Wind from calm
Wind: Calm
Temperature: 43°F , 6°C
Dew Point: 39°F , 4°C
Humidity: 87%
Barometer: 30.11 inHg , 1019.6 hPa
Clouds: Clear
Visibility: 10 miles , 16 km
2019/05/21 02:53 KFNT 210253Z 00000KT 10SM CLR 06/04 A3011 RMK AO2 SLP200 T00560039 51009
KMBS - Saginaw, Michigan, USA
Distance from station: SW 44mi, 70km
Updated: Mon, 20-May-2019 10:53pm EDT
Clear
Clear
 Wind from NW
Wind: NW 9 mph , 15 km/h
Temperature: 46°F , 8°C
Wind Chill: 41°F , 5°C
Dew Point: 37°F , 3°C
Humidity: 71%
Barometer: 30.12 inHg , 1020 hPa
Clouds: Clear
Visibility: 10 miles , 16 km
2019/05/21 02:53 KMBS 210253Z AUTO 32008KT 10SM CLR 08/03 A3012 RMK AO2 SLP203 T00830033 51014
 
KDTW - Detroit/Wayne, Michigan, USA
Distance from station: SSE 117mi, 188km
Updated: Mon, 20-May-2019 10:53pm EDT
Overcast
Overcast
 Wind from NNW
Wind: NNW 6 mph , 9 km/h
Temperature: 52°F , 11°C
Dew Point: 39°F , 4°C
Humidity: 62%
Barometer: 30.12 inHg , 1020 hPa
Clouds: Overcast
Visibility: 10 miles , 16 km
Cloud details: Overcast 3500 ft
2019/05/21 02:53 KDTW 210253Z 33005KT 10SM OVC035 11/04 A3012 RMK AO2 SLP200 T01060039 51013
KP58 - Port Hope, Michigan, USA
Distance from station: ENE 30mi, 48km
Updated: Mon, 20-May-2019 10:51pm EDT

 Wind from W
Wind: W 3 mph , 6 km/h
Temperature: 43°F , 6°C
Dew Point: 37°F , 3°C
Humidity: 81%
Barometer: 30.09 inHg , 1019 hPa
2019/05/21 02:51 KP58 210251Z AUTO 28003KT 06/03 A3009 RMK AO1 SLP191 T00610033 50019
KCFS - Caro/Tuscola, Michigan, USA
Distance from station: S 31mi, 50km
Updated: Mon, 20-May-2019 11:35pm EDT
Mostly cloudy
Mostly cloudy
 Wind from NW
Wind: NW 5 mph , 7 km/h
Temperature: 46°F , 8°C
Wind Chill: 44°F , 7°C
Dew Point: 41°F , 5°C
Humidity: 82%
Barometer: 30.11 inHg , 1019.6 hPa
Clouds: Mostly cloudy
Visibility: 10 miles , 16 km
Cloud details: Mostly cloudy 5000 ft
2019/05/21 03:35 KCFS 210335Z AUTO 31004KT 10SM BKN050 08/05 A3011 RMK AO2 T00750045
 
KPHN - Port Huron, Michigan, USA
Distance from station: SSE 81mi, 131km
Updated: Mon, 20-May-2019 10:58pm EDT
Mist, Overcast
Mist, Overcast
 Wind from calm
Wind: Calm
Temperature: 43°F , 6°C
Dew Point: 39°F , 4°C
Humidity: 87%
Barometer: 30.10 inHg , 1019.3 hPa
Summary: Mist
Clouds: Overcast
Visibility: 1 1/4 miles , 2 km
Cloud details: Overcast 700 ft
2019/05/21 02:58 KPHN 210258Z AUTO 00000KT 1 1/4SM BR VV007 06/04 A3010 RMK AO2
KPTK - Pontiac, Michigan, USA
Distance from station: S 86mi, 138km
Updated: Mon, 20-May-2019 10:53pm EDT
Mostly cloudy
Mostly cloudy
 Wind from NNW
Wind: NNW 5 mph , 7 km/h
Temperature: 46°F , 8°C
Wind Chill: 44°F , 7°C
Dew Point: 39°F , 4°C
Humidity: 76%
Barometer: 30.09 inHg , 1019 hPa
Clouds: Mostly cloudy
Visibility: 10 miles , 16 km
Cloud details: Mostly cloudy 4000 ft
2019/05/21 02:53 KPTK 210253Z 33004KT 10SM BKN040 08/04 A3009 RMK AO2 SLP193 T00830044 51009
KMTC - Selfridge Angb, Michigan, USA
Distance from station: SSE 94mi, 151km
Updated: Mon, 20-May-2019 10:55pm EDT
Few Clouds
Few Clouds
 Wind from NNE
Wind: NNE 3 mph , 6 km/h
Temperature: 46°F , 8°C
Dew Point: 45°F , 7°C
Humidity: 93%
Barometer: 30.08 inHg , 1018.6 hPa
Clouds: Few Clouds
Visibility: 12 miles , 19 km
Cloud details: Few Clouds 4600 ft
2019/05/21 02:55 KMTC 210255Z 02003KT 12SM FEW046 08/07 A3008 RMK AO2A SLP193 T00810070 50012 $